sensor_id;sensor_type;location;lat;lon;timestamp;temperature;humidity
23550;DHT22;11953;49.010;8.608;2023-03-24T00:01:20;13.60;99.90
23550;DHT22;11953;49.010;8.608;2023-03-24T00:04:06;13.60;99.90
23550;DHT22;11953;49.010;8.608;2023-03-24T00:06:55;13.70;99.90
23550;DHT22;11953;49.010;8.608;2023-03-24T00:09:42;13.80;99.90
23550;DHT22;11953;49.010;8.608;2023-03-24T00:12:29;13.80;99.90
23550;DHT22;11953;49.010;8.608;2023-03-24T00:15:18;13.60;99.90
23550;DHT22;11953;49.010;8.608;2023-03-24T00:18:06;13.30;99.90
23550;DHT22;11953;49.010;8.608;2023-03-24T00:20:55;13.10;99.90
23550;DHT22;11953;49.010;8.608;2023-03-24T00:23:45;13.00;99.90
23550;DHT22;11953;49.010;8.608;2023-03-24T00:26:31;12.90;99.90
23550;DHT22;11953;49.010;8.608;2023-03-24T00:29:18;12.90;99.90
23550;DHT22;11953;49.010;8.608;2023-03-24T00:32:05;12.90;99.90
23550;DHT22;11953;49.010;8.608;2023-03-24T00:34:53;13.10;99.90
23550;DHT22;11953;49.010;8.608;2023-03-24T00:37:40;13.20;99.90
23550;DHT22;11953;49.010;8.608;2023-03-24T00:40:28;13.30;99.90
23550;DHT22;11953;49.010;8.608;2023-03-24T00:43:15;13.40;99.90
23550;DHT22;11953;49.010;8.608;2023-03-24T00:46:05;13.40;99.90
23550;DHT22;11953;49.010;8.608;2023-03-24T00:48:52;13.50;99.90
23550;DHT22;11953;49.010;8.608;2023-03-24T00:51:42;13.40;99.90
23550;DHT22;11953;49.010;8.608;2023-03-24T00:54:30;13.50;99.90
23550;DHT22;11953;49.010;8.608;2023-03-24T00:57:18;13.50;99.90
23550;DHT22;11953;49.010;8.608;2023-03-24T01:00:07;13.50;99.90
23550;DHT22;11953;49.010;8.608;2023-03-24T01:02:58;13.50;99.90
23550;DHT22;11953;49.010;8.608;2023-03-24T01:05:48;13.50;99.90
23550;DHT22;11953;49.010;8.608;2023-03-24T01:08:35;13.60;99.90
23550;DHT22;11953;49.010;8.608;2023-03-24T01:11:24;13.60;99.90
23550;DHT22;11953;49.010;8.608;2023-03-24T01:14:13;13.50;99.90
23550;DHT22;11953;49.010;8.608;2023-03-24T01:17:00;13.50;99.90
23550;DHT22;11953;49.010;8.608;2023-03-24T01:19:47;13.60;99.90
23550;DHT22;11953;49.010;8.608;2023-03-24T01:22:35;13.70;99.90
23550;DHT22;11953;49.010;8.608;2023-03-24T01:25:22;13.70;99.90
23550;DHT22;11953;49.010;8.608;2023-03-24T01:28:10;13.70;99.90
23550;DHT22;11953;49.010;8.608;2023-03-24T01:30:59;13.70;99.90
23550;DHT22;11953;49.010;8.608;2023-03-24T01:33:45;13.80;99.90
23550;DHT22;11953;49.010;8.608;2023-03-24T01:36:32;13.70;99.90
23550;DHT22;11953;49.010;8.608;2023-03-24T01:39:19;13.70;99.90
23550;DHT22;11953;49.010;8.608;2023-03-24T01:42:07;13.80;99.90
23550;DHT22;11953;49.010;8.608;2023-03-24T01:45:00;13.80;99.90
23550;DHT22;11953;49.010;8.608;2023-03-24T01:47:49;13.90;99.90
23550;DHT22;11953;49.010;8.608;2023-03-24T01:50:36;14.00;99.90
23550;DHT22;11953;49.010;8.608;2023-03-24T01:53:24;14.10;99.90
23550;DHT22;11953;49.010;8.608;2023-03-24T01:56:12;14.00;99.90
23550;DHT22;11953;49.010;8.608;2023-03-24T01:59:04;13.90;99.90
23550;DHT22;11953;49.010;8.608;2023-03-24T02:02:08;14.00;99.90
23550;DHT22;11953;49.010;8.608;2023-03-24T02:05:13;14.00;99.90
23550;DHT22;11953;49.010;8.608;2023-03-24T02:08:06;13.90;99.90
23550;DHT22;11953;49.010;8.608;2023-03-24T02:10:55;13.90;99.90
23550;DHT22;11953;49.010;8.608;2023-03-24T02:13:49;13.90;99.90
23550;DHT22;11953;49.010;8.608;2023-03-24T02:16:52;14.00;99.90
23550;DHT22;11953;49.010;8.608;2023-03-24T02:20:16;13.90;99.90
23550;DHT22;11953;49.010;8.608;2023-03-24T02:23:40;14.00;99.90
23550;DHT22;11953;49.010;8.608;2023-03-24T02:26:51;14.00;99.90
23550;DHT22;11953;49.010;8.608;2023-03-24T02:30:14;14.00;99.90
23550;DHT22;11953;49.010;8.608;2023-03-24T02:33:30;14.00;99.90
23550;DHT22;11953;49.010;8.608;2023-03-24T02:37:06;13.90;99.90
23550;DHT22;11953;49.010;8.608;2023-03-24T02:40:23;13.80;99.90
23550;DHT22;11953;49.010;8.608;2023-03-24T02:43:32;13.70;99.90
23550;DHT22;11953;49.010;8.608;2023-03-24T02:46:24;13.80;99.90
23550;DHT22;11953;49.010;8.608;2023-03-24T02:49:20;13.90;99.90
23550;DHT22;11953;49.010;8.608;2023-03-24T02:52:16;13.70;99.90
23550;DHT22;11953;49.010;8.608;2023-03-24T02:55:13;13.80;99.90
23550;DHT22;11953;49.010;8.608;2023-03-24T02:58:06;13.70;99.90
23550;DHT22;11953;49.010;8.608;2023-03-24T03:01:10;13.80;99.90
23550;DHT22;11953;49.010;8.608;2023-03-24T03:04:31;13.90;99.90
23550;DHT22;11953;49.010;8.608;2023-03-24T03:07:21;13.80;99.90
23550;DHT22;11953;49.010;8.608;2023-03-24T03:10:14;13.80;99.90
23550;DHT22;11953;49.010;8.608;2023-03-24T03:13:07;13.80;99.90
23550;DHT22;11953;49.010;8.608;2023-03-24T03:15:57;13.60;99.90
23550;DHT22;11953;49.010;8.608;2023-03-24T03:18:48;13.50;99.90
23550;DHT22;11953;49.010;8.608;2023-03-24T03:21:39;13.50;99.90
23550;DHT22;11953;49.010;8.608;2023-03-24T03:24:31;13.50;99.90
23550;DHT22;11953;49.010;8.608;2023-03-24T03:27:23;13.60;99.90
23550;DHT22;11953;49.010;8.608;2023-03-24T03:30:15;13.70;99.90
23550;DHT22;11953;49.010;8.608;2023-03-24T03:33:05;13.80;99.90
23550;DHT22;11953;49.010;8.608;2023-03-24T03:35:57;13.80;99.90
23550;DHT22;11953;49.010;8.608;2023-03-24T03:38:53;13.90;99.90
23550;DHT22;11953;49.010;8.608;2023-03-24T03:41:41;13.90;99.90
23550;DHT22;11953;49.010;8.608;2023-03-24T03:44:30;13.80;99.90
23550;DHT22;11953;49.010;8.608;2023-03-24T03:47:18;13.80;99.90
23550;DHT22;11953;49.010;8.608;2023-03-24T03:50:08;13.70;99.90
23550;DHT22;11953;49.010;8.608;2023-03-24T03:52:55;13.70;99.90
23550;DHT22;11953;49.010;8.608;2023-03-24T03:55:42;13.70;99.90
23550;DHT22;11953;49.010;8.608;2023-03-24T03:58:30;13.80;99.90
23550;DHT22;11953;49.010;8.608;2023-03-24T04:01:19;13.80;99.90
23550;DHT22;11953;49.010;8.608;2023-03-24T04:04:54;13.90;99.90
23550;DHT22;11953;49.010;8.608;2023-03-24T04:08:16;13.70;99.90
23550;DHT22;11953;49.010;8.608;2023-03-24T04:11:31;13.70;99.90
23550;DHT22;11953;49.010;8.608;2023-03-24T04:14:35;13.60;99.90
23550;DHT22;11953;49.010;8.608;2023-03-24T04:17:54;13.60;99.90
23550;DHT22;11953;49.010;8.608;2023-03-24T04:24:41;13.60;99.90
23550;DHT22;11953;49.010;8.608;2023-03-24T04:27:38;13.60;99.90
23550;DHT22;11953;49.010;8.608;2023-03-24T04:30:41;13.60;99.90
23550;DHT22;11953;49.010;8.608;2023-03-24T04:33:39;13.60;99.90
23550;DHT22;11953;49.010;8.608;2023-03-24T04:36:34;13.70;99.90
23550;DHT22;11953;49.010;8.608;2023-03-24T04:39:47;13.70;99.90
23550;DHT22;11953;49.010;8.608;2023-03-24T04:42:36;13.70;99.90
23550;DHT22;11953;49.010;8.608;2023-03-24T04:45:24;13.70;99.90
23550;DHT22;11953;49.010;8.608;2023-03-24T04:48:33;13.70;99.90
23550;DHT22;11953;49.010;8.608;2023-03-24T04:51:32;13.70;99.90
23550;DHT22;11953;49.010;8.608;2023-03-24T04:54:22;13.60;99.90
23550;DHT22;11953;49.010;8.608;2023-03-24T04:57:16;13.50;99.90
23550;DHT22;11953;49.010;8.608;2023-03-24T05:00:08;13.40;99.90
23550;DHT22;11953;49.010;8.608;2023-03-24T05:02:58;13.40;99.90
23550;DHT22;11953;49.010;8.608;2023-03-24T05:05:47;13.30;99.90
23550;DHT22;11953;49.010;8.608;2023-03-24T05:08:35;13.30;99.90
23550;DHT22;11953;49.010;8.608;2023-03-24T05:11:22;13.20;99.90
23550;DHT22;11953;49.010;8.608;2023-03-24T05:14:18;13.10;99.90
23550;DHT22;11953;49.010;8.608;2023-03-24T05:17:05;13.10;99.90
23550;DHT22;11953;49.010;8.608;2023-03-24T05:19:52;13.00;99.90
23550;DHT22;11953;49.010;8.608;2023-03-24T05:22:39;13.00;99.90
23550;DHT22;11953;49.010;8.608;2023-03-24T05:25:27;13.00;99.90
23550;DHT22;11953;49.010;8.608;2023-03-24T05:28:14;13.10;99.90
23550;DHT22;11953;49.010;8.608;2023-03-24T05:31:01;13.00;99.90
23550;DHT22;11953;49.010;8.608;2023-03-24T05:34:06;13.00;99.90
23550;DHT22;11953;49.010;8.608;2023-03-24T05:37:08;13.10;99.90
23550;DHT22;11953;49.010;8.608;2023-03-24T05:39:57;13.10;99.90
23550;DHT22;11953;49.010;8.608;2023-03-24T05:43:01;13.10;99.90
23550;DHT22;11953;49.010;8.608;2023-03-24T05:45:57;13.10;99.90
23550;DHT22;11953;49.010;8.608;2023-03-24T05:48:48;13.10;99.90
23550;DHT22;11953;49.010;8.608;2023-03-24T05:51:37;13.10;99.90
23550;DHT22;11953;49.010;8.608;2023-03-24T05:54:25;13.10;99.90
23550;DHT22;11953;49.010;8.608;2023-03-24T05:57:20;13.10;99.90
23550;DHT22;11953;49.010;8.608;2023-03-24T06:00:41;13.00;99.90
23550;DHT22;11953;49.010;8.608;2023-03-24T06:03:36;12.90;99.90
23550;DHT22;11953;49.010;8.608;2023-03-24T06:06:29;12.90;99.90
23550;DHT22;11953;49.010;8.608;2023-03-24T06:09:16;12.90;99.90
23550;DHT22;11953;49.010;8.608;2023-03-24T06:12:04;12.90;99.90
23550;DHT22;11953;49.010;8.608;2023-03-24T06:14:53;12.90;99.90
23550;DHT22;11953;49.010;8.608;2023-03-24T06:17:42;13.00;99.90
23550;DHT22;11953;49.010;8.608;2023-03-24T06:20:42;13.00;99.90
23550;DHT22;11953;49.010;8.608;2023-03-24T06:23:37;13.10;99.90
23550;DHT22;11953;49.010;8.608;2023-03-24T06:26:27;13.10;99.90
23550;DHT22;11953;49.010;8.608;2023-03-24T06:29:17;13.20;99.90
23550;DHT22;11953;49.010;8.608;2023-03-24T06:32:04;13.30;99.90
23550;DHT22;11953;49.010;8.608;2023-03-24T06:34:59;13.40;99.90
23550;DHT22;11953;49.010;8.608;2023-03-24T06:37:56;13.40;99.90
23550;DHT22;11953;49.010;8.608;2023-03-24T06:40:43;13.40;99.90
23550;DHT22;11953;49.010;8.608;2023-03-24T06:43:31;13.40;99.90
23550;DHT22;11953;49.010;8.608;2023-03-24T06:46:18;13.50;99.90
23550;DHT22;11953;49.010;8.608;2023-03-24T06:49:06;13.40;99.90
23550;DHT22;11953;49.010;8.608;2023-03-24T06:51:55;13.30;99.90
23550;DHT22;11953;49.010;8.608;2023-03-24T06:54:45;13.30;99.90
23550;DHT22;11953;49.010;8.608;2023-03-24T06:57:32;13.30;99.90
23550;DHT22;11953;49.010;8.608;2023-03-24T07:00:45;13.30;99.90
23550;DHT22;11953;49.010;8.608;2023-03-24T07:03:53;13.30;99.90
23550;DHT22;11953;49.010;8.608;2023-03-24T07:06:51;13.30;99.90
23550;DHT22;11953;49.010;8.608;2023-03-24T07:10:01;13.30;99.90
23550;DHT22;11953;49.010;8.608;2023-03-24T07:12:49;13.30;99.90
23550;DHT22;11953;49.010;8.608;2023-03-24T07:15:36;13.40;99.90
23550;DHT22;11953;49.010;8.608;2023-03-24T07:18:23;13.30;99.90
23550;DHT22;11953;49.010;8.608;2023-03-24T07:21:16;13.30;99.90
23550;DHT22;11953;49.010;8.608;2023-03-24T07:24:06;13.30;99.90
23550;DHT22;11953;49.010;8.608;2023-03-24T07:27:07;13.30;99.90
23550;DHT22;11953;49.010;8.608;2023-03-24T07:29:54;13.30;99.90
23550;DHT22;11953;49.010;8.608;2023-03-24T07:32:51;13.30;99.90
23550;DHT22;11953;49.010;8.608;2023-03-24T07:35:41;13.30;99.90
23550;DHT22;11953;49.010;8.608;2023-03-24T07:38:28;13.30;99.90
23550;DHT22;11953;49.010;8.608;2023-03-24T07:41:21;13.40;99.90
23550;DHT22;11953;49.010;8.608;2023-03-24T07:44:15;13.40;99.90
23550;DHT22;11953;49.010;8.608;2023-03-24T07:47:07;13.30;99.90
23550;DHT22;11953;49.010;8.608;2023-03-24T07:49:54;13.30;99.90
23550;DHT22;11953;49.010;8.608;2023-03-24T07:52:44;13.30;99.90
23550;DHT22;11953;49.010;8.608;2023-03-24T07:55:37;13.30;99.90
23550;DHT22;11953;49.010;8.608;2023-03-24T07:58:30;13.30;99.90
23550;DHT22;11953;49.010;8.608;2023-03-24T08:01:39;13.30;99.90
23550;DHT22;11953;49.010;8.608;2023-03-24T08:04:27;13.30;99.90
23550;DHT22;11953;49.010;8.608;2023-03-24T08:07:21;13.30;99.90
23550;DHT22;11953;49.010;8.608;2023-03-24T08:10:10;13.30;99.90
23550;DHT22;11953;49.010;8.608;2023-03-24T08:12:58;13.20;99.90
23550;DHT22;11953;49.010;8.608;2023-03-24T08:15:45;13.30;99.90
23550;DHT22;11953;49.010;8.608;2023-03-24T08:18:33;13.40;99.90
23550;DHT22;11953;49.010;8.608;2023-03-24T08:21:19;13.40;99.90
23550;DHT22;11953;49.010;8.608;2023-03-24T08:24:06;13.60;99.90
23550;DHT22;11953;49.010;8.608;2023-03-24T08:26:52;13.50;99.90
23550;DHT22;11953;49.010;8.608;2023-03-24T08:29:43;13.60;99.90
23550;DHT22;11953;49.010;8.608;2023-03-24T08:32:29;13.60;99.90
23550;DHT22;11953;49.010;8.608;2023-03-24T08:35:20;13.70;99.90
23550;DHT22;11953;49.010;8.608;2023-03-24T08:38:08;13.70;99.90
23550;DHT22;11953;49.010;8.608;2023-03-24T08:40:56;13.90;99.90
23550;DHT22;11953;49.010;8.608;2023-03-24T08:43:46;13.90;99.90
23550;DHT22;11953;49.010;8.608;2023-03-24T08:46:33;14.00;99.90
23550;DHT22;11953;49.010;8.608;2023-03-24T08:49:20;13.90;99.90
23550;DHT22;11953;49.010;8.608;2023-03-24T08:52:08;14.00;99.90
23550;DHT22;11953;49.010;8.608;2023-03-24T08:54:54;14.00;99.90
23550;DHT22;11953;49.010;8.608;2023-03-24T08:57:41;14.00;99.90
23550;DHT22;11953;49.010;8.608;2023-03-24T09:00:28;14.00;99.90
23550;DHT22;11953;49.010;8.608;2023-03-24T09:03:17;14.00;99.90
23550;DHT22;11953;49.010;8.608;2023-03-24T09:06:07;14.00;99.90
23550;DHT22;11953;49.010;8.608;2023-03-24T09:08:55;14.10;99.90
23550;DHT22;11953;49.010;8.608;2023-03-24T09:11:42;14.10;99.90
23550;DHT22;11953;49.010;8.608;2023-03-24T09:14:29;14.10;99.90
23550;DHT22;11953;49.010;8.608;2023-03-24T09:17:16;14.10;99.90
23550;DHT22;11953;49.010;8.608;2023-03-24T09:20:05;14.10;99.90
23550;DHT22;11953;49.010;8.608;2023-03-24T09:22:55;14.10;99.90
23550;DHT22;11953;49.010;8.608;2023-03-24T09:25:44;14.10;99.90
23550;DHT22;11953;49.010;8.608;2023-03-24T09:28:31;14.20;99.90
23550;DHT22;11953;49.010;8.608;2023-03-24T09:31:18;14.30;99.90
23550;DHT22;11953;49.010;8.608;2023-03-24T09:34:04;14.40;99.90
23550;DHT22;11953;49.010;8.608;2023-03-24T09:36:51;14.50;99.90
23550;DHT22;11953;49.010;8.608;2023-03-24T09:39:38;14.60;99.90
23550;DHT22;11953;49.010;8.608;2023-03-24T09:42:27;14.70;99.90
23550;DHT22;11953;49.010;8.608;2023-03-24T09:45:17;14.70;99.90
23550;DHT22;11953;49.010;8.608;2023-03-24T09:48:07;14.70;99.90
23550;DHT22;11953;49.010;8.608;2023-03-24T09:50:58;14.80;99.90
23550;DHT22;11953;49.010;8.608;2023-03-24T09:53:51;15.00;99.90
23550;DHT22;11953;49.010;8.608;2023-03-24T09:56:44;15.00;99.90
23550;DHT22;11953;49.010;8.608;2023-03-24T09:59:37;15.20;99.90
23550;DHT22;11953;49.010;8.608;2023-03-24T10:02:27;15.20;99.90
23550;DHT22;11953;49.010;8.608;2023-03-24T10:05:16;15.20;99.90
23550;DHT22;11953;49.010;8.608;2023-03-24T10:08:10;15.40;99.90
23550;DHT22;11953;49.010;8.608;2023-03-24T10:11:01;15.50;99.90
23550;DHT22;11953;49.010;8.608;2023-03-24T10:13:56;15.50;99.90
23550;DHT22;11953;49.010;8.608;2023-03-24T10:16:55;15.50;99.90
23550;DHT22;11953;49.010;8.608;2023-03-24T10:19:43;15.50;99.90
23550;DHT22;11953;49.010;8.608;2023-03-24T10:22:34;15.40;99.90
23550;DHT22;11953;49.010;8.608;2023-03-24T10:25:30;15.30;99.90
23550;DHT22;11953;49.010;8.608;2023-03-24T10:28:25;15.40;99.90
23550;DHT22;11953;49.010;8.608;2023-03-24T10:31:14;15.50;99.90
23550;DHT22;11953;49.010;8.608;2023-03-24T10:34:04;15.80;99.90
23550;DHT22;11953;49.010;8.608;2023-03-24T10:36:51;15.90;99.90
23550;DHT22;11953;49.010;8.608;2023-03-24T10:39:38;15.90;99.90
23550;DHT22;11953;49.010;8.608;2023-03-24T10:42:32;15.90;99.90
23550;DHT22;11953;49.010;8.608;2023-03-24T10:45:25;15.90;99.90
23550;DHT22;11953;49.010;8.608;2023-03-24T10:48:32;15.90;99.90
23550;DHT22;11953;49.010;8.608;2023-03-24T10:51:24;16.00;99.90
23550;DHT22;11953;49.010;8.608;2023-03-24T10:54:16;16.20;99.90
23550;DHT22;11953;49.010;8.608;2023-03-24T10:57:04;16.30;99.90
23550;DHT22;11953;49.010;8.608;2023-03-24T10:59:54;16.40;99.90
23550;DHT22;11953;49.010;8.608;2023-03-24T11:02:42;16.60;99.90
23550;DHT22;11953;49.010;8.608;2023-03-24T11:05:31;16.50;99.90
23550;DHT22;11953;49.010;8.608;2023-03-24T11:08:26;16.40;99.90
23550;DHT22;11953;49.010;8.608;2023-03-24T11:11:19;16.40;99.90
23550;DHT22;11953;49.010;8.608;2023-03-24T11:14:20;16.60;99.90
23550;DHT22;11953;49.010;8.608;2023-03-24T11:17:11;16.60;99.90
23550;DHT22;11953;49.010;8.608;2023-03-24T11:20:00;16.70;99.90
23550;DHT22;11953;49.010;8.608;2023-03-24T11:22:55;16.50;99.90
23550;DHT22;11953;49.010;8.608;2023-03-24T11:25:46;16.40;99.90
23550;DHT22;11953;49.010;8.608;2023-03-24T11:28:38;16.90;99.90
23550;DHT22;11953;49.010;8.608;2023-03-24T11:31:26;17.00;99.90
23550;DHT22;11953;49.010;8.608;2023-03-24T11:34:16;16.90;99.90
23550;DHT22;11953;49.010;8.608;2023-03-24T11:37:09;16.80;99.90
23550;DHT22;11953;49.010;8.608;2023-03-24T11:40:20;16.80;99.90
23550;DHT22;11953;49.010;8.608;2023-03-24T11:43:18;16.60;99.90
23550;DHT22;11953;49.010;8.608;2023-03-24T11:46:10;16.30;99.90
23550;DHT22;11953;49.010;8.608;2023-03-24T11:49:00;16.10;99.90
23550;DHT22;11953;49.010;8.608;2023-03-24T11:51:49;16.10;99.90
23550;DHT22;11953;49.010;8.608;2023-03-24T11:54:37;16.20;99.90
23550;DHT22;11953;49.010;8.608;2023-03-24T11:57:37;16.20;99.90
23550;DHT22;11953;49.010;8.608;2023-03-24T12:00:31;16.30;99.90
23550;DHT22;11953;49.010;8.608;2023-03-24T12:03:47;16.10;99.90
23550;DHT22;11953;49.010;8.608;2023-03-24T12:06:45;16.10;99.90
23550;DHT22;11953;49.010;8.608;2023-03-24T12:09:40;15.90;99.90
23550;DHT22;11953;49.010;8.608;2023-03-24T12:12:36;15.00;99.90
23550;DHT22;11953;49.010;8.608;2023-03-24T12:15:42;14.30;99.90
23550;DHT22;11953;49.010;8.608;2023-03-24T12:18:40;13.80;99.90
23550;DHT22;11953;49.010;8.608;2023-03-24T12:21:41;13.40;99.90
23550;DHT22;11953;49.010;8.608;2023-03-24T12:24:46;13.20;99.90
23550;DHT22;11953;49.010;8.608;2023-03-24T12:27:47;13.10;99.90
23550;DHT22;11953;49.010;8.608;2023-03-24T12:30:44;13.10;99.90
23550;DHT22;11953;49.010;8.608;2023-03-24T12:33:42;13.00;99.90
23550;DHT22;11953;49.010;8.608;2023-03-24T12:36:43;13.00;99.90
23550;DHT22;11953;49.010;8.608;2023-03-24T12:39:34;12.90;99.90
23550;DHT22;11953;49.010;8.608;2023-03-24T12:42:22;12.80;99.90
23550;DHT22;11953;49.010;8.608;2023-03-24T12:45:21;12.80;99.90
23550;DHT22;11953;49.010;8.608;2023-03-24T12:51:35;12.60;99.90
23550;DHT22;11953;49.010;8.608;2023-03-24T12:54:35;12.40;99.90
23550;DHT22;11953;49.010;8.608;2023-03-24T12:57:26;12.40;99.90
23550;DHT22;11953;49.010;8.608;2023-03-24T13:00:19;12.30;99.90
23550;DHT22;11953;49.010;8.608;2023-03-24T13:03:11;12.30;99.90
23550;DHT22;11953;49.010;8.608;2023-03-24T13:06:11;12.40;99.90
23550;DHT22;11953;49.010;8.608;2023-03-24T13:09:06;12.50;99.90
23550;DHT22;11953;49.010;8.608;2023-03-24T13:11:57;12.50;99.90
23550;DHT22;11953;49.010;8.608;2023-03-24T13:14:50;12.40;99.90
23550;DHT22;11953;49.010;8.608;2023-03-24T13:17:44;12.10;99.90
23550;DHT22;11953;49.010;8.608;2023-03-24T13:20:36;12.20;99.90
23550;DHT22;11953;49.010;8.608;2023-03-24T13:23:44;12.20;99.90
23550;DHT22;11953;49.010;8.608;2023-03-24T13:26:37;12.50;99.90
23550;DHT22;11953;49.010;8.608;2023-03-24T13:29:45;12.60;99.90
23550;DHT22;11953;49.010;8.608;2023-03-24T13:32:38;12.80;99.90
23550;DHT22;11953;49.010;8.608;2023-03-24T13:35:37;12.90;99.90
23550;DHT22;11953;49.010;8.608;2023-03-24T13:38:30;13.00;99.90
23550;DHT22;11953;49.010;8.608;2023-03-24T13:41:22;13.20;99.90
23550;DHT22;11953;49.010;8.608;2023-03-24T13:44:17;13.20;99.90
23550;DHT22;11953;49.010;8.608;2023-03-24T13:47:10;13.40;99.90
23550;DHT22;11953;49.010;8.608;2023-03-24T13:50:00;13.60;99.90
23550;DHT22;11953;49.010;8.608;2023-03-24T13:52:48;13.60;99.90
23550;DHT22;11953;49.010;8.608;2023-03-24T13:55:37;13.60;99.90
23550;DHT22;11953;49.010;8.608;2023-03-24T13:58:37;13.60;99.90
23550;DHT22;11953;49.010;8.608;2023-03-24T14:01:31;13.60;99.90
23550;DHT22;11953;49.010;8.608;2023-03-24T14:04:26;13.50;99.90
23550;DHT22;11953;49.010;8.608;2023-03-24T14:07:29;13.40;99.90
23550;DHT22;11953;49.010;8.608;2023-03-24T14:10:39;13.60;99.90
23550;DHT22;11953;49.010;8.608;2023-03-24T14:13:35;13.50;99.90
23550;DHT22;11953;49.010;8.608;2023-03-24T14:16:41;13.70;99.90
23550;DHT22;11953;49.010;8.608;2023-03-24T14:19:30;13.70;99.90
23550;DHT22;11953;49.010;8.608;2023-03-24T14:22:21;13.80;99.90
23550;DHT22;11953;49.010;8.608;2023-03-24T14:25:26;14.00;99.90
23550;DHT22;11953;49.010;8.608;2023-03-24T14:28:18;14.10;99.90
23550;DHT22;11953;49.010;8.608;2023-03-24T14:31:19;14.10;99.90
23550;DHT22;11953;49.010;8.608;2023-03-24T14:34:13;14.10;99.90
23550;DHT22;11953;49.010;8.608;2023-03-24T14:37:01;14.10;99.90
23550;DHT22;11953;49.010;8.608;2023-03-24T14:39:51;14.10;99.90
23550;DHT22;11953;49.010;8.608;2023-03-24T14:42:55;14.00;99.90
23550;DHT22;11953;49.010;8.608;2023-03-24T14:45:58;14.00;99.90
23550;DHT22;11953;49.010;8.608;2023-03-24T14:48:54;14.20;99.90
23550;DHT22;11953;49.010;8.608;2023-03-24T14:51:44;14.20;99.90
23550;DHT22;11953;49.010;8.608;2023-03-24T14:54:36;14.30;99.90
23550;DHT22;11953;49.010;8.608;2023-03-24T14:57:24;14.30;99.90
23550;DHT22;11953;49.010;8.608;2023-03-24T15:00:17;14.30;99.90
23550;DHT22;11953;49.010;8.608;2023-03-24T15:03:17;14.30;99.90
23550;DHT22;11953;49.010;8.608;2023-03-24T15:06:13;14.30;99.90
23550;DHT22;11953;49.010;8.608;2023-03-24T15:09:00;14.30;99.90
23550;DHT22;11953;49.010;8.608;2023-03-24T15:11:51;14.30;99.90
23550;DHT22;11953;49.010;8.608;2023-03-24T15:14:38;14.40;99.90
23550;DHT22;11953;49.010;8.608;2023-03-24T15:17:24;14.30;99.90
23550;DHT22;11953;49.010;8.608;2023-03-24T15:20:20;14.30;99.90
23550;DHT22;11953;49.010;8.608;2023-03-24T15:23:16;14.30;99.90
23550;DHT22;11953;49.010;8.608;2023-03-24T15:26:11;14.30;99.90
23550;DHT22;11953;49.010;8.608;2023-03-24T15:29:00;14.20;99.90
23550;DHT22;11953;49.010;8.608;2023-03-24T15:31:48;14.20;99.90
23550;DHT22;11953;49.010;8.608;2023-03-24T15:34:39;14.30;99.90
23550;DHT22;11953;49.010;8.608;2023-03-24T15:37:31;14.40;99.90
23550;DHT22;11953;49.010;8.608;2023-03-24T15:40:35;14.50;99.90
23550;DHT22;11953;49.010;8.608;2023-03-24T15:43:22;14.60;99.90
23550;DHT22;11953;49.010;8.608;2023-03-24T15:46:19;14.50;99.90
23550;DHT22;11953;49.010;8.608;2023-03-24T15:49:18;14.50;99.90
23550;DHT22;11953;49.010;8.608;2023-03-24T15:52:24;14.40;99.90
23550;DHT22;11953;49.010;8.608;2023-03-24T15:55:22;14.30;99.90
23550;DHT22;11953;49.010;8.608;2023-03-24T15:58:23;14.20;99.90
23550;DHT22;11953;49.010;8.608;2023-03-24T16:01:12;14.20;99.90
23550;DHT22;11953;49.010;8.608;2023-03-24T16:04:04;14.20;99.90
23550;DHT22;11953;49.010;8.608;2023-03-24T16:06:52;14.30;99.90
23550;DHT22;11953;49.010;8.608;2023-03-24T16:09:42;14.40;99.90
23550;DHT22;11953;49.010;8.608;2023-03-24T16:12:30;14.40;99.90
23550;DHT22;11953;49.010;8.608;2023-03-24T16:15:18;14.40;99.90
23550;DHT22;11953;49.010;8.608;2023-03-24T16:18:04;14.50;99.90
23550;DHT22;11953;49.010;8.608;2023-03-24T16:20:51;14.40;99.90
23550;DHT22;11953;49.010;8.608;2023-03-24T16:23:38;14.50;99.90
23550;DHT22;11953;49.010;8.608;2023-03-24T16:26:28;14.50;99.90
23550;DHT22;11953;49.010;8.608;2023-03-24T16:29:16;14.50;99.90
23550;DHT22;11953;49.010;8.608;2023-03-24T16:32:05;14.50;99.90
23550;DHT22;11953;49.010;8.608;2023-03-24T16:34:51;14.50;99.90
23550;DHT22;11953;49.010;8.608;2023-03-24T16:37:38;14.60;99.90
23550;DHT22;11953;49.010;8.608;2023-03-24T16:40:33;14.50;99.90
23550;DHT22;11953;49.010;8.608;2023-03-24T16:43:20;14.60;99.90
23550;DHT22;11953;49.010;8.608;2023-03-24T16:46:12;14.70;99.90
23550;DHT22;11953;49.010;8.608;2023-03-24T16:49:02;14.60;99.90
23550;DHT22;11953;49.010;8.608;2023-03-24T16:51:50;14.70;99.90
23550;DHT22;11953;49.010;8.608;2023-03-24T16:54:37;14.60;99.90
23550;DHT22;11953;49.010;8.608;2023-03-24T16:57:23;14.50;99.90
23550;DHT22;11953;49.010;8.608;2023-03-24T17:00:12;14.50;99.90
23550;DHT22;11953;49.010;8.608;2023-03-24T17:02:58;14.40;99.90
23550;DHT22;11953;49.010;8.608;2023-03-24T17:05:48;14.40;99.90
23550;DHT22;11953;49.010;8.608;2023-03-24T17:08:35;14.30;99.90
23550;DHT22;11953;49.010;8.608;2023-03-24T17:11:25;14.20;99.90
23550;DHT22;11953;49.010;8.608;2023-03-24T17:14:13;14.10;99.90
23550;DHT22;11953;49.010;8.608;2023-03-24T17:16:59;14.00;99.90
23550;DHT22;11953;49.010;8.608;2023-03-24T17:19:48;14.00;99.90
23550;DHT22;11953;49.010;8.608;2023-03-24T17:22:36;13.90;99.90
23550;DHT22;11953;49.010;8.608;2023-03-24T17:25:22;13.90;99.90
23550;DHT22;11953;49.010;8.608;2023-03-24T17:28:14;13.90;99.90
23550;DHT22;11953;49.010;8.608;2023-03-24T17:31:01;13.80;99.90
23550;DHT22;11953;49.010;8.608;2023-03-24T17:33:48;13.70;99.90
23550;DHT22;11953;49.010;8.608;2023-03-24T17:36:35;13.70;99.90
23550;DHT22;11953;49.010;8.608;2023-03-24T17:39:23;13.70;99.90
23550;DHT22;11953;49.010;8.608;2023-03-24T17:42:09;13.70;99.90
23550;DHT22;11953;49.010;8.608;2023-03-24T17:44:56;13.60;99.90
23550;DHT22;11953;49.010;8.608;2023-03-24T17:47:43;13.60;99.90
23550;DHT22;11953;49.010;8.608;2023-03-24T17:50:30;13.60;99.90
23550;DHT22;11953;49.010;8.608;2023-03-24T17:53:17;13.60;99.90
23550;DHT22;11953;49.010;8.608;2023-03-24T17:56:11;13.60;99.90
23550;DHT22;11953;49.010;8.608;2023-03-24T17:58:58;13.50;99.90
23550;DHT22;11953;49.010;8.608;2023-03-24T18:01:44;13.40;99.90
23550;DHT22;11953;49.010;8.608;2023-03-24T18:04:31;13.40;99.90
23550;DHT22;11953;49.010;8.608;2023-03-24T18:07:18;13.30;99.90
23550;DHT22;11953;49.010;8.608;2023-03-24T18:10:06;13.30;99.90
23550;DHT22;11953;49.010;8.608;2023-03-24T18:12:54;13.30;99.90
23550;DHT22;11953;49.010;8.608;2023-03-24T18:15:41;13.20;99.90
23550;DHT22;11953;49.010;8.608;2023-03-24T18:18:28;13.20;99.90